Airfield :
LOGIN :

Register | Disclaimer

   EN    FR    IT 

 










Legend :    VFR   Marginal VFR   IFR   Intensive IFR   Very Intensive IFR
Visi :
Ceiling :
>= 8 km
>= 3000ft
5 to 8 km
1000 to 3000 ft
1500m to 5 km
500 to 1000 ft
800 to 1500m
200 to 500 ft
< 800m
< 200 ft
Symbols :   Thunderstorms  Fog  Heavy snow  Heavy precipitations  Wind > 20 kt
SIGMETs :     Misc.  Thunderstorms  Icing  Turbulence  Mountain Waves  Volcanic Ashes






- Airport Elevation : 122 ft
- IATA code : TXL


EDDT - Berlin Tegel Int.

CURRENT METAR :
  • 182050Z 23012KT 9999 FEW046 06/01 Q1017 NOSIG

EXPIRED METARs :
  • 182020Z 24014KT 9999 SCT034 06/01 Q1017 NOSIG
  • 181950Z 23013KT 9999 SCT034 07/01 Q1017 NOSIG
  • 181920Z 23012KT 9999 BKN037 07/01 Q1017 NOSIG
  • 181850Z 23013KT CAVOK 07/01 Q1017 NOSIG
  • 181820Z 22013KT CAVOK 07/00 Q1018 NOSIG

TAF TAF EDDT
Valid from the 18 at 18:00 until the 19 at 18:00 UTC


181700Z 1818/1918 23012KT 9999 SCT040
PROB30
TEMPO 1818/1906 23015G25KT
BECMG 1906/1909 25015G25KT
PROB30
TEMPO 1911/1918 28020G35KT SHRA BKN015CB



MET'MAP, your aeronautical weather chart ! - Copyright ORBIFLY December 2007 - Disclaimer

ORBIFLY MET'MAP TEAM :

Programming & Development : Alexandra Zaïnal
Concept & original design : Baudouin d'Aumeries
Assistance for programming : Marc-Olivier Méhu
Technical & hardware support : Manuel Goepfert

Contact : metmap@orbifly.com




SOURCES & CREDITS :

   NOAA